Time;durP1;ratioP1;P1;durP2;ratioP2;P2;SDS_P1;SDS_P2;PMS_P1;PMS_P2;Temp;Humidity;BMP_temperature;BMP_pressure;BME280_temperature;BME280_humidity;BME280_pressure;Samples;Min_cycle;Max_cycle;Signal;HPM_P1;HPM_P2
2022/06/26 00:01:14;;;;;;;1.23;1.13;;;15.70;99.90;;;;;;5073984;28;20191;-60
2022/06/26 00:03:40;;;;;;;1.42;1.25;;;15.70;99.90;;;;;;5057336;28;20540;-60
2022/06/26 00:06:06;;;;;;;1.25;1.00;;;15.50;99.90;;;;;;5057265;28;20179;-60
2022/06/26 00:08:32;;;;;;;1.42;1.20;;;15.60;99.90;;;;;;5075004;28;20171;-60
2022/06/26 00:10:57;;;;;;;1.27;1.00;;;15.50;99.90;;;;;;5075171;28;20246;-60
2022/06/26 00:13:23;;;;;;;1.83;1.20;;;15.50;99.90;;;;;;5057198;28;20671;-60
2022/06/26 00:15:49;;;;;;;1.33;1.08;;;15.50;99.90;;;;;;5075258;28;20202;-60
2022/06/26 00:18:14;;;;;;;1.15;1.05;;;15.40;99.90;;;;;;5074816;28;20517;-60
2022/06/26 00:20:40;;;;;;;1.10;0.90;;;15.40;99.90;;;;;;5057093;28;20232;-60
2022/06/26 00:23:06;;;;;;;1.73;1.10;;;15.40;99.90;;;;;;5074825;28;20647;-60
2022/06/26 00:25:32;;;;;;;1.30;1.17;;;15.40;99.90;;;;;;5074927;28;20174;-60
2022/06/26 00:27:58;;;;;;;1.20;1.10;;;15.40;99.90;;;;;;5074763;28;20544;-60
2022/06/26 00:30:23;;;;;;;1.02;1.00;;;15.30;99.90;;;;;;5056612;28;20195;-60
2022/06/26 00:32:49;;;;;;;1.98;1.50;;;15.30;99.90;;;;;;5056663;28;20203;-60
2022/06/26 00:35:14;;;;;;;0.80;0.80;;;15.40;99.90;;;;;;5056653;28;20272;-61
2022/06/26 00:37:40;;;;;;;1.40;1.23;;;15.30;99.90;;;;;;5074470;28;20628;-60
2022/06/26 00:40:07;;;;;;;1.10;1.00;;;15.30;99.90;;;;;;5056749;28;20167;-60
2022/06/26 00:42:33;;;;;;;1.25;1.15;;;15.30;99.90;;;;;;5056657;28;20186;-60
2022/06/26 00:44:58;;;;;;;1.27;1.17;;;15.20;99.90;;;;;;5074286;28;20179;-60
2022/06/26 00:47:25;;;;;;;1.10;1.00;;;15.30;99.90;;;;;;5074251;28;20182;-60
2022/06/26 00:49:51;;;;;;;1.98;1.38;;;15.30;99.90;;;;;;5074198;28;20690;-60
2022/06/26 00:52:21;;;;;;;2.10;1.17;;;15.20;99.90;;;;;;5074314;28;20202;-60
2022/06/26 00:54:52;;;;;;;1.58;1.30;;;15.20;99.90;;;;;;5074210;28;20214;-60
2022/06/26 00:57:21;;;;;;;1.67;1.25;;;15.20;99.90;;;;;;5056345;28;20325;-60
2022/06/26 00:59:48;;;;;;;2.35;1.20;;;15.20;99.90;;;;;;5056176;28;20179;-60
2022/06/26 01:02:15;;;;;;;2.42;1.38;;;15.10;99.90;;;;;;5073878;28;20925;-60
2022/06/26 01:04:41;;;;;;;1.83;1.20;;;15.10;99.90;;;;;;5074186;28;20178;-59
2022/06/26 01:07:07;;;;;;;2.95;1.40;;;15.10;99.90;;;;;;5073922;28;20182;-59
2022/06/26 01:09:34;;;;;;;1.55;1.38;;;15.10;99.90;;;;;;5073470;28;20186;-60
2022/06/26 01:12:00;;;;;;;0.93;0.88;;;15.10;99.90;;;;;;5073648;28;20555;-60
2022/06/26 01:14:25;;;;;;;1.88;1.38;;;15.00;99.90;;;;;;5073722;28;20182;-60
2022/06/26 01:16:51;;;;;;;3.22;1.50;;;15.00;99.90;;;;;;5073568;28;20175;-58
2022/06/26 01:19:19;;;;;;;2.00;1.10;;;15.00;99.90;;;;;;5072517;28;20183;-59
2022/06/26 01:21:45;;;;;;;1.80;1.10;;;15.00;99.90;;;;;;5055931;28;20516;-60
2022/06/26 01:24:11;;;;;;;1.40;1.20;;;15.00;99.90;;;;;;5055881;28;20257;-60
2022/06/26 01:26:37;;;;;;;1.60;1.20;;;14.90;99.90;;;;;;5073546;28;20262;-60
2022/06/26 01:29:03;;;;;;;1.30;0.93;;;14.90;99.90;;;;;;5073430;28;20189;-60
2022/06/26 01:31:32;;;;;;;1.25;1.15;;;14.90;99.90;;;;;;5073829;28;20195;-59
2022/06/26 01:33:59;;;;;;;1.77;1.30;;;14.90;99.90;;;;;;5073504;28;20213;-61
2022/06/26 01:36:24;;;;;;;2.33;1.10;;;14.90;99.90;;;;;;5073589;28;20201;-60
2022/06/26 01:38:50;;;;;;;1.98;1.20;;;14.90;99.90;;;;;;5073774;28;20175;-57
2022/06/26 01:41:16;;;;;;;2.03;1.15;;;14.90;99.90;;;;;;5038870;28;20202;-60
2022/06/26 01:43:42;;;;;;;1.45;1.20;;;14.90;99.90;;;;;;5055393;28;20235;-59
2022/06/26 01:46:08;;;;;;;0.90;0.90;;;14.90;99.90;;;;;;5055459;28;20189;-59
2022/06/26 01:48:37;;;;;;;1.50;1.20;;;14.80;99.90;;;;;;5073427;28;20170;-59
2022/06/26 01:51:03;;;;;;;2.92;1.40;;;14.80;99.90;;;;;;5073300;28;20174;-59
2022/06/26 01:53:30;;;;;;;1.45;1.10;;;14.80;99.90;;;;;;5038702;28;20206;-56
2022/06/26 01:55:56;;;;;;;1.50;1.15;;;14.80;99.90;;;;;;5073280;28;20190;-59
2022/06/26 01:58:22;;;;;;;1.52;1.17;;;14.80;99.90;;;;;;5073123;28;20175;-59
2022/06/26 02:00:50;;;;;;;1.08;0.98;;;14.80;99.90;;;;;;5073058;28;20203;-60
2022/06/26 02:03:16;;;;;;;1.00;0.90;;;14.80;99.90;;;;;;5073261;28;20174;-59
2022/06/26 02:05:43;;;;;;;1.35;0.98;;;14.80;99.90;;;;;;5073228;28;20178;-59
2022/06/26 02:08:09;;;;;;;1.17;0.93;;;14.80;99.90;;;;;;5055407;28;20623;-59
2022/06/26 02:16:19;;;;;;;2.17;1.52;;;14.70;99.90;;;;;;5058155;28;20197;-59
2022/06/26 02:18:47;;;;;;;1.20;1.10;;;14.70;99.90;;;;;;5073023;28;20174;-60
2022/06/26 02:21:15;;;;;;;1.52;1.20;;;14.60;99.90;;;;;;5074477;28;20174;-59
2022/06/26 02:23:43;;;;;;;1.40;1.23;;;14.60;99.90;;;;;;5077258;28;20214;-59
2022/06/26 02:26:09;;;;;;;1.40;1.10;;;14.70;99.90;;;;;;5076987;28;20640;-59
2022/06/26 02:28:36;;;;;;;1.13;1.02;;;14.60;99.90;;;;;;5076939;28;20206;-59
2022/06/26 02:31:02;;;;;;;1.83;1.17;;;14.70;99.90;;;;;;5059026;28;20182;-60
2022/06/26 02:33:29;;;;;;;2.47;1.10;;;14.70;99.90;;;;;;5058985;28;20212;-59
2022/06/26 02:35:55;;;;;;;1.23;1.08;;;14.70;99.90;;;;;;5076760;28;20179;-59
2022/06/26 02:38:24;;;;;;;1.63;1.10;;;14.70;99.90;;;;;;5076976;28;20163;-59
2022/06/26 02:40:50;;;;;;;1.33;1.23;;;14.70;99.90;;;;;;5076715;28;20539;-60
2022/06/26 02:43:18;;;;;;;1.58;1.48;;;14.70;99.90;;;;;;5058865;28;20178;-59
2022/06/26 02:45:44;;;;;;;3.67;1.40;;;14.60;99.90;;;;;;5076697;28;20167;-60
2022/06/26 02:48:10;;;;;;;2.00;1.20;;;14.60;99.90;;;;;;5076482;28;20187;-59
2022/06/26 02:50:36;;;;;;;2.28;1.50;;;14.70;99.90;;;;;;5076502;28;20167;-60
2022/06/26 02:53:04;;;;;;;2.55;1.40;;;14.60;99.90;;;;;;5075319;28;20210;-60
2022/06/26 02:55:30;;;;;;;1.33;1.10;;;14.50;99.90;;;;;;5076565;28;20265;-59
2022/06/26 02:57:56;;;;;;;1.40;1.15;;;14.50;99.90;;;;;;5076349;28;20724;-59
2022/06/26 03:00:21;;;;;;;1.67;1.58;;;14.50;99.90;;;;;;5058737;28;20182;-60
2022/06/26 03:02:47;;;;;;;1.30;1.02;;;14.60;99.90;;;;;;5058598;28;20174;-60
2022/06/26 03:05:13;;;;;;;1.52;1.20;;;14.60;99.90;;;;;;5076467;28;20546;-61
2022/06/26 03:07:38;;;;;;;1.65;1.50;;;14.60;99.90;;;;;;5058634;28;20182;-60
2022/06/26 03:10:05;;;;;;;1.35;1.00;;;14.50;99.90;;;;;;5075215;28;20215;-59
2022/06/26 03:12:31;;;;;;;1.08;0.80;;;14.60;99.90;;;;;;5076043;28;20293;-60
2022/06/26 03:14:57;;;;;;;1.02;0.93;;;14.60;99.90;;;;;;5076045;28;20222;-60
2022/06/26 03:17:23;;;;;;;1.50;1.30;;;14.60;99.90;;;;;;5075977;28;20175;-60
2022/06/26 03:19:49;;;;;;;1.52;1.25;;;14.60;99.90;;;;;;5076361;28;20197;-60
2022/06/26 03:22:14;;;;;;;0.98;0.85;;;14.70;99.90;;;;;;5076168;28;20177;-60
2022/06/26 03:24:40;;;;;;;1.33;1.23;;;14.60;99.90;;;;;;5075871;28;20599;-59
2022/06/26 03:27:06;;;;;;;1.45;1.13;;;14.70;99.90;;;;;;5058254;28;20197;-60
2022/06/26 03:29:31;;;;;;;1.20;0.90;;;14.60;99.90;;;;;;5075631;28;20210;-60
2022/06/26 03:31:57;;;;;;;1.70;1.30;;;14.70;99.90;;;;;;5057416;28;20509;-60
2022/06/26 03:34:23;;;;;;;1.70;1.15;;;14.60;99.90;;;;;;5075847;28;20225;-60
2022/06/26 03:36:49;;;;;;;1.33;1.15;;;14.70;99.90;;;;;;5058041;28;20170;-60
2022/06/26 03:39:14;;;;;;;1.33;1.23;;;14.70;99.90;;;;;;5075684;28;20219;-61
2022/06/26 03:41:40;;;;;;;1.13;1.02;;;14.70;99.90;;;;;;5075714;28;20170;-60
2022/06/26 03:44:06;;;;;;;1.60;1.40;;;14.60;99.90;;;;;;5057710;28;20631;-59
2022/06/26 03:46:32;;;;;;;1.65;1.25;;;14.60;99.90;;;;;;5074332;28;20232;-60
2022/06/26 03:48:58;;;;;;;1.73;1.30;;;14.60;99.90;;;;;;5075571;28;20167;-60
2022/06/26 03:51:24;;;;;;;2.17;1.25;;;14.70;99.90;;;;;;5075659;28;20174;-60
2022/06/26 03:53:50;;;;;;;0.82;0.80;;;14.60;99.90;;;;;;5057539;28;20202;-60
2022/06/26 03:56:16;;;;;;;1.73;1.35;;;14.60;99.90;;;;;;5075357;28;20651;-60
2022/06/26 03:58:42;;;;;;;1.30;1.20;;;14.60;99.90;;;;;;5057409;28;20194;-60
2022/06/26 04:01:07;;;;;;;2.28;1.38;;;14.50;99.90;;;;;;5075338;28;20632;-60
2022/06/26 04:03:33;;;;;;;1.65;1.40;;;14.50;99.90;;;;;;5075187;28;20179;-60
2022/06/26 04:05:59;;;;;;;1.35;1.00;;;14.50;99.90;;;;;;5057321;28;20220;-60
2022/06/26 04:08:25;;;;;;;2.13;1.20;;;14.60;99.90;;;;;;5075149;28;20175;-60
2022/06/26 04:10:50;;;;;;;1.20;1.10;;;14.60;99.90;;;;;;5057459;28;20198;-60
2022/06/26 04:13:16;;;;;;;0.88;0.88;;;14.60;99.90;;;;;;5075006;28;20241;-60
2022/06/26 04:15:42;;;;;;;1.52;1.15;;;14.60;99.90;;;;;;5040439;28;20178;-59
2022/06/26 04:18:08;;;;;;;1.48;1.25;;;14.60;99.90;;;;;;5057045;28;20177;-60
2022/06/26 04:20:34;;;;;;;1.52;1.30;;;14.60;99.90;;;;;;5075306;28;20654;-60
2022/06/26 04:23:05;;;;;;;1.75;1.25;;;14.60;99.90;;;;;;5074961;28;20190;-60
2022/06/26 04:25:33;;;;;;;1.27;1.13;;;14.60;99.90;;;;;;5074848;28;20174;-60
2022/06/26 04:27:59;;;;;;;1.23;0.98;;;14.60;99.90;;;;;;5074976;28;20170;-60
2022/06/26 04:30:25;;;;;;;1.20;1.00;;;14.60;99.90;;;;;;5074558;28;20197;-60
2022/06/26 04:32:51;;;;;;;1.30;1.20;;;14.60;99.90;;;;;;5056902;28;20285;-60
2022/06/26 04:35:17;;;;;;;1.58;1.27;;;14.60;99.90;;;;;;5057020;28;20282;-59
2022/06/26 04:37:43;;;;;;;1.15;1.05;;;14.60;99.90;;;;;;5074505;28;20190;-60
2022/06/26 04:40:11;;;;;;;2.63;1.30;;;14.70;99.90;;;;;;5073378;28;20171;-60
2022/06/26 04:42:38;;;;;;;1.38;1.25;;;14.70;99.90;;;;;;5073591;28;20513;-60
2022/06/26 04:45:05;;;;;;;1.85;1.10;;;14.70;99.90;;;;;;5074266;28;20530;-59
2022/06/26 04:47:30;;;;;;;1.60;1.20;;;14.80;99.90;;;;;;5074227;28;20619;-60
2022/06/26 04:49:56;;;;;;;2.38;1.17;;;14.90;99.90;;;;;;5074307;28;20181;-60
2022/06/26 04:52:22;;;;;;;1.42;1.10;;;14.90;99.90;;;;;;5056494;28;20175;-60
2022/06/26 04:54:48;;;;;;;1.70;1.05;;;14.90;99.90;;;;;;5074126;28;20171;-60
2022/06/26 04:57:13;;;;;;;1.13;1.02;;;15.00;99.90;;;;;;5074146;28;20652;-61
2022/06/26 04:59:39;;;;;;;1.65;1.02;;;14.90;99.90;;;;;;5074201;28;20179;-57
2022/06/26 05:02:07;;;;;;;2.45;1.33;;;14.90;99.90;;;;;;5073932;28;20170;-60
2022/06/26 05:04:33;;;;;;;2.88;1.40;;;15.00;99.90;;;;;;5074077;28;20220;-60
2022/06/26 05:06:58;;;;;;;1.27;1.17;;;15.00;99.90;;;;;;5056140;28;20178;-60
2022/06/26 05:09:25;;;;;;;1.38;1.08;;;15.00;99.90;;;;;;5056105;28;20178;-61
2022/06/26 05:11:51;;;;;;;1.10;1.00;;;15.00;99.90;;;;;;5073873;28;20175;-62
2022/06/26 05:14:18;;;;;;;1.17;1.08;;;15.00;99.90;;;;;;5073731;28;20206;-60
2022/06/26 05:16:44;;;;;;;1.15;1.02;;;15.00;99.90;;;;;;5073837;28;20175;-60
2022/06/26 05:19:10;;;;;;;1.92;1.33;;;15.00;99.90;;;;;;5073805;28;20632;-60
2022/06/26 05:21:35;;;;;;;1.15;0.93;;;14.90;99.90;;;;;;5074347;28;20182;-61
2022/06/26 05:24:01;;;;;;;0.85;0.85;;;15.00;99.90;;;;;;5055914;28;20175;-60
2022/06/26 05:26:27;;;;;;;1.60;1.20;;;15.00;99.90;;;;;;5073545;28;20170;-56
2022/06/26 05:28:53;;;;;;;1.17;0.88;;;15.10;99.90;;;;;;5073390;28;20187;-59
2022/06/26 05:31:19;;;;;;;2.92;1.00;;;15.10;99.90;;;;;;5055713;28;20190;-60
2022/06/26 05:33:45;;;;;;;1.20;0.95;;;15.10;99.90;;;;;;5055814;28;20214;-60
2022/06/26 05:36:11;;;;;;;1.70;1.25;;;15.10;99.90;;;;;;5073790;28;20227;-60
2022/06/26 05:38:38;;;;;;;2.08;1.35;;;15.10;99.90;;;;;;5055647;28;20528;-60
2022/06/26 05:41:05;;;;;;;4.20;1.52;;;15.20;99.90;;;;;;5073586;28;20170;-59
2022/06/26 05:43:31;;;;;;;1.40;1.10;;;15.30;99.90;;;;;;5073337;28;20266;-60
2022/06/26 05:45:57;;;;;;;1.10;0.80;;;15.40;99.90;;;;;;5073705;28;20599;-59
2022/06/26 05:48:26;;;;;;;1.40;0.88;;;15.30;99.90;;;;;;5073222;28;20170;-60
2022/06/26 05:50:52;;;;;;;0.85;0.82;;;15.30;99.90;;;;;;5073379;28;20171;-59
2022/06/26 05:53:19;;;;;;;1.33;0.98;;;15.40;99.90;;;;;;5073128;28;20208;-59
2022/06/26 05:55:45;;;;;;;1.17;1.00;;;15.50;99.90;;;;;;5072863;28;20186;-60
2022/06/26 05:58:12;;;;;;;1.27;1.08;;;15.40;99.90;;;;;;5055373;28;20193;-59
2022/06/26 06:00:38;;;;;;;2.05;1.00;;;15.50;99.90;;;;;;5072924;28;20213;-59
2022/06/26 06:03:05;;;;;;;1.05;0.80;;;15.60;99.90;;;;;;5073045;28;20261;-60
2022/06/26 06:05:31;;;;;;;1.35;1.08;;;15.70;99.90;;;;;;5073185;28;20174;-56
2022/06/26 06:07:57;;;;;;;1.60;1.23;;;15.70;99.90;;;;;;5073020;28;20228;-59
2022/06/26 06:10:24;;;;;;;1.63;1.20;;;15.80;99.90;;;;;;5072957;28;20179;-59
2022/06/26 06:12:51;;;;;;;2.05;1.20;;;16.00;99.90;;;;;;5073158;28;20294;-59
2022/06/26 06:15:17;;;;;;;1.00;0.93;;;16.10;99.90;;;;;;5037336;28;20592;-58
2022/06/26 06:17:44;;;;;;;1.38;1.10;;;16.30;99.90;;;;;;5070198;28;20190;-60
2022/06/26 06:20:12;;;;;;;1.02;0.82;;;16.30;99.90;;;;;;5072841;28;20220;-58
2022/06/26 06:22:39;;;;;;;1.23;1.00;;;16.30;99.90;;;;;;5073021;28;20178;-59
2022/06/26 06:25:06;;;;;;;1.25;1.00;;;16.30;99.90;;;;;;5072532;28;20178;-59
2022/06/26 06:27:31;;;;;;;0.57;0.57;;;16.40;99.90;;;;;;5072581;28;20175;-59
2022/06/26 06:29:57;;;;;;;0.93;0.77;;;16.50;99.90;;;;;;5072682;28;20194;-59
2022/06/26 06:32:23;;;;;;;1.50;1.00;;;16.50;99.90;;;;;;5072788;28;20535;-59
2022/06/26 06:34:48;;;;;;;0.95;0.85;;;16.60;99.90;;;;;;5054938;28;20182;-59
2022/06/26 06:37:14;;;;;;;1.10;1.00;;;16.70;99.90;;;;;;5054831;28;20273;-59
2022/06/26 06:39:40;;;;;;;0.95;0.90;;;16.70;99.90;;;;;;5072306;28;20183;-59
2022/06/26 06:42:05;;;;;;;1.10;0.75;;;16.60;99.90;;;;;;5072812;28;20620;-59
2022/06/26 06:44:31;;;;;;;1.10;0.80;;;16.60;99.90;;;;;;5072599;28;20642;-60
2022/06/26 06:46:57;;;;;;;1.75;1.15;;;16.60;99.90;;;;;;5054701;28;20179;-59
2022/06/26 06:49:22;;;;;;;2.20;1.05;;;16.50;99.90;;;;;;5054873;28;20186;-60
2022/06/26 06:51:48;;;;;;;1.02;0.95;;;16.20;99.90;;;;;;5054577;28;20175;-59
2022/06/26 06:54:14;;;;;;;1.50;0.90;;;16.30;99.90;;;;;;5072407;28;20206;-59
2022/06/26 06:56:39;;;;;;;0.80;0.80;;;16.30;99.90;;;;;;5072295;28;20215;-60
2022/06/26 06:59:05;;;;;;;0.80;0.75;;;16.20;99.90;;;;;;5072982;28;20570;-59
2022/06/26 07:01:31;;;;;;;1.60;1.10;;;16.20;99.90;;;;;;5072581;28;20170;-59
2022/06/26 07:03:56;;;;;;;1.20;1.00;;;16.20;99.90;;;;;;5054535;28;20216;-60
2022/06/26 07:06:22;;;;;;;1.33;1.10;;;16.30;99.90;;;;;;5038729;28;20201;-58
2022/06/26 07:08:48;;;;;;;0.93;0.88;;;16.40;99.90;;;;;;5056938;28;20223;-60
2022/06/26 07:11:14;;;;;;;0.98;0.80;;;16.50;99.90;;;;;;5076172;28;20180;-59
2022/06/26 07:13:39;;;;;;;1.52;0.95;;;16.50;99.90;;;;;;5075112;28;20209;-57
2022/06/26 07:16:05;;;;;;;1.02;0.90;;;16.40;99.90;;;;;;5058075;28;20257;-59
2022/06/26 07:18:31;;;;;;;1.30;1.02;;;16.60;99.90;;;;;;5076049;28;20254;-59
2022/06/26 07:20:57;;;;;;;1.15;0.93;;;16.80;99.90;;;;;;5075913;28;20663;-59
2022/06/26 07:23:23;;;;;;;1.20;1.00;;;17.10;99.90;;;;;;5058121;28;20187;-59
2022/06/26 07:25:48;;;;;;;1.48;0.98;;;17.60;99.90;;;;;;5041509;28;20227;-59
2022/06/26 07:28:14;;;;;;;1.20;0.98;;;17.70;99.90;;;;;;5058084;28;20174;-59
2022/06/26 07:30:40;;;;;;;0.65;0.60;;;17.90;99.90;;;;;;5057806;28;20198;-60
2022/06/26 07:35:52;;;;;;;0.82;0.82;;;18.10;99.90;;;;;;5075961;28;20209;-60
2022/06/26 07:38:18;;;;;;;2.33;0.90;;;17.90;99.90;;;;;;5075897;28;20178;-59
2022/06/26 07:40:44;;;;;;;1.52;0.93;;;17.90;99.90;;;;;;5075606;28;20175;-59
2022/06/26 07:43:09;;;;;;;2.33;1.45;;;17.80;99.90;;;;;;5057781;28;20186;-57
2022/06/26 07:45:35;;;;;;;0.85;0.70;;;17.80;99.90;;;;;;5057834;28;20179;-59
2022/06/26 07:48:01;;;;;;;2.03;0.90;;;17.70;99.90;;;;;;5057590;28;20179;-60
2022/06/26 07:50:27;;;;;;;1.38;0.98;;;17.70;99.90;;;;;;5075489;28;20635;-59
2022/06/26 07:52:53;;;;;;;1.58;0.88;;;17.90;99.90;;;;;;5075447;28;20257;-60
2022/06/26 07:55:18;;;;;;;1.10;0.90;;;17.70;99.90;;;;;;5057505;28;20210;-59
2022/06/26 07:57:44;;;;;;;0.60;0.60;;;17.70;99.90;;;;;;5075388;28;20185;-59
2022/06/26 08:00:10;;;;;;;2.00;1.10;;;17.60;99.90;;;;;;5057037;28;20205;-59
2022/06/26 08:02:36;;;;;;;1.00;0.90;;;17.80;99.90;;;;;;5075442;28;20185;-59
2022/06/26 08:05:02;;;;;;;1.27;0.82;;;18.00;99.90;;;;;;5057188;28;20175;-59
2022/06/26 08:07:28;;;;;;;0.77;0.77;;;18.20;99.90;;;;;;5074748;28;20186;-59
2022/06/26 08:09:53;;;;;;;0.82;0.70;;;18.30;99.90;;;;;;5073451;28;20644;-62
2022/06/26 08:12:19;;;;;;;1.17;0.98;;;18.30;99.90;;;;;;5075023;28;20175;-60
2022/06/26 08:14:45;;;;;;;0.85;0.70;;;18.10;99.90;;;;;;5075069;28;20670;-60
2022/06/26 08:17:10;;;;;;;0.65;0.65;;;18.10;99.90;;;;;;5074904;28;20175;-61
2022/06/26 08:19:36;;;;;;;1.58;1.00;;;18.10;99.90;;;;;;5074795;28;20244;-61
2022/06/26 08:22:02;;;;;;;0.77;0.73;;;18.20;99.90;;;;;;5075267;28;20175;-60
2022/06/26 08:24:30;;;;;;;1.65;0.95;;;18.30;99.90;;;;;;5074899;28;20185;-61
2022/06/26 08:26:56;;;;;;;1.58;0.80;;;18.40;99.90;;;;;;5074732;28;20262;-61
2022/06/26 08:29:21;;;;;;;2.30;1.10;;;18.40;99.90;;;;;;5074927;28;20209;-60
2022/06/26 08:31:47;;;;;;;1.20;0.80;;;18.40;99.90;;;;;;5074936;28;20709;-61
2022/06/26 08:34:13;;;;;;;0.90;0.85;;;18.50;99.90;;;;;;5056612;28;20229;-61
2022/06/26 08:36:38;;;;;;;3.58;0.90;;;18.50;99.90;;;;;;5074744;28;20647;-61
2022/06/26 08:39:05;;;;;;;1.60;0.88;;;18.50;99.90;;;;;;5074656;28;20178;-61
2022/06/26 08:41:38;;;;;;;0.88;0.85;;;18.50;99.90;;;;;;5056739;28;20186;-59
2022/06/26 08:44:04;;;;;;;1.67;0.85;;;18.50;99.90;;;;;;5074467;28;20177;-61
2022/06/26 08:46:35;;;;;;;1.00;1.00;;;18.50;99.90;;;;;;5074303;28;20174;-60
2022/06/26 08:49:03;;;;;;;0.90;0.70;;;18.60;99.90;;;;;;5056847;28;20301;-59
2022/06/26 08:51:29;;;;;;;0.77;0.77;;;18.70;99.90;;;;;;5074353;28;20253;-60
2022/06/26 08:53:57;;;;;;;2.30;1.00;;;18.90;99.90;;;;;;5056265;28;20207;-58
2022/06/26 08:56:23;;;;;;;1.55;1.23;;;18.70;99.90;;;;;;5056259;28;20206;-59
2022/06/26 08:58:49;;;;;;;1.25;0.82;;;18.60;99.90;;;;;;5074193;28;20217;-59
2022/06/26 09:01:14;;;;;;;0.80;0.80;;;18.70;99.90;;;;;;5073882;28;20198;-59
2022/06/26 09:03:40;;;;;;;1.15;0.90;;;18.70;99.90;;;;;;5074086;28;20214;-59
2022/06/26 09:06:06;;;;;;;1.25;0.90;;;18.60;99.90;;;;;;5055958;28;20543;-60
2022/06/26 09:08:45;;;;;;;1.23;1.08;;;18.60;99.90;;;;;;5073948;28;20516;-59
2022/06/26 09:11:11;;;;;;;0.75;0.75;;;18.50;99.90;;;;;;5074011;28;20208;-59
2022/06/26 09:13:42;;;;;;;1.58;1.05;;;18.80;99.90;;;;;;5073649;28;20215;-60
2022/06/26 09:16:08;;;;;;;1.42;1.20;;;19.00;99.90;;;;;;5073932;28;20647;-59
2022/06/26 09:18:37;;;;;;;1.45;1.02;;;19.10;99.90;;;;;;5073534;28;20312;-60
2022/06/26 09:21:06;;;;;;;1.08;1.00;;;19.10;99.90;;;;;;5055936;28;20266;-60
2022/06/26 09:23:33;;;;;;;0.80;0.80;;;19.20;99.90;;;;;;5073796;28;20171;-59
2022/06/26 09:26:00;;;;;;;0.88;0.80;;;19.10;99.90;;;;;;5073876;28;20166;-59
2022/06/26 09:28:26;;;;;;;1.20;0.90;;;19.20;99.90;;;;;;5073197;28;20202;-59
2022/06/26 09:30:58;;;;;;;1.95;1.25;;;19.20;99.90;;;;;;5073382;28;20183;-60
2022/06/26 09:33:35;;;;;;;1.00;0.90;;;19.40;99.90;;;;;;5073363;28;20206;-60
2022/06/26 09:36:03;;;;;;;1.38;1.08;;;19.60;99.90;;;;;;5073546;28;20178;-59
2022/06/26 09:38:34;;;;;;;1.05;0.90;;;19.80;99.90;;;;;;5073410;28;20273;-60
2022/06/26 09:41:02;;;;;;;1.50;1.33;;;19.70;99.90;;;;;;5073251;28;20205;-60
2022/06/26 09:43:32;;;;;;;0.80;0.80;;;19.80;99.90;;;;;;5073534;28;20186;-59
2022/06/26 09:46:04;;;;;;;1.30;1.17;;;19.80;99.90;;;;;;5073334;28;20173;-59
2022/06/26 09:48:31;;;;;;;0.75;0.70;;;19.70;99.90;;;;;;5073379;28;20660;-60
2022/06/26 09:50:57;;;;;;;0.95;0.70;;;19.80;99.90;;;;;;5073248;28;20174;-59
2022/06/26 09:53:24;;;;;;;1.50;1.10;;;19.80;99.90;;;;;;5073053;28;20301;-59
2022/06/26 09:55:52;;;;;;;1.27;0.90;;;19.70;99.90;;;;;;5073178;28;20262;-59
2022/06/26 09:58:19;;;;;;;0.98;0.73;;;19.80;99.90;;;;;;5055442;28;20179;-60
2022/06/26 10:06:28;;;;;;;1.10;1.00;;;19.80;99.90;;;;;;5073370;28;20182;-59
2022/06/26 10:08:58;;;;;;;0.95;0.80;;;19.80;99.90;;;;;;5073062;28;20201;-59
2022/06/26 10:11:29;;;;;;;0.85;0.68;;;19.80;99.90;;;;;;5073133;28;20215;-59
2022/06/26 10:14:19;;;;;;;1.10;0.80;;;19.80;99.90;;;;;;5072993;28;20245;-60
2022/06/26 10:17:03;;;;;;;1.15;0.93;;;19.60;99.90;;;;;;5058182;28;20179;-60
2022/06/26 10:19:44;;;;;;;1.00;0.70;;;19.40;99.90;;;;;;5054158;28;20257;-60
2022/06/26 10:22:11;;;;;;;1.02;0.80;;;19.70;99.90;;;;;;5072293;28;20232;-59
2022/06/26 10:24:51;;;;;;;1.15;0.80;;;19.80;99.90;;;;;;5054050;28;20630;-59
2022/06/26 10:27:23;;;;;;;0.75;0.60;;;20.00;99.90;;;;;;5072098;28;20185;-59
2022/06/26 10:29:49;;;;;;;0.88;0.70;;;20.00;99.90;;;;;;5071550;28;20201;-59
2022/06/26 10:32:23;;;;;;;1.58;0.63;;;19.90;99.90;;;;;;5053953;28;20540;-59
2022/06/26 10:34:58;;;;;;;0.80;0.80;;;19.80;99.90;;;;;;5071919;28;20186;-59
2022/06/26 10:37:24;;;;;;;0.68;0.68;;;19.80;99.90;;;;;;5072135;28;20212;-60
2022/06/26 10:39:53;;;;;;;0.80;0.70;;;19.90;99.90;;;;;;5053974;28;20519;-59
2022/06/26 10:45:23;;;;;;;0.75;0.70;;;19.80;99.90;;;;;;5076064;28;20596;-60
2022/06/26 10:47:49;;;;;;;1.25;0.70;;;19.90;99.90;;;;;;5075661;28;20175;-60
2022/06/26 10:50:30;;;;;;;3.28;0.85;;;20.00;99.90;;;;;;5075748;28;20618;-60
2022/06/26 10:53:18;;;;;;;2.95;1.05;;;20.10;99.90;;;;;;5075375;28;20202;-59
2022/06/26 10:56:01;;;;;;;0.60;0.50;;;20.20;99.90;;;;;;5074481;28;20174;-59
2022/06/26 10:58:31;;;;;;;0.45;0.45;;;20.20;99.90;;;;;;5056928;28;20202;-59
2022/06/26 11:01:06;;;;;;;1.15;0.60;;;20.10;99.90;;;;;;5075306;28;20261;-59
2022/06/26 11:03:32;;;;;;;1.70;0.60;;;20.10;99.90;;;;;;5057405;28;20596;-59
2022/06/26 11:06:09;;;;;;;1.25;1.15;;;20.10;99.90;;;;;;5075291;28;20166;-59
2022/06/26 11:08:52;;;;;;;0.63;0.50;;;20.10;99.90;;;;;;5075463;28;20663;-59
2022/06/26 11:11:22;;;;;;;0.75;0.63;;;20.20;99.90;;;;;;5075275;28;20173;-59
2022/06/26 11:13:51;;;;;;;0.70;0.63;;;20.30;99.90;;;;;;5075224;28;20295;-61
2022/06/26 11:16:17;;;;;;;0.60;0.60;;;20.50;99.90;;;;;;5056664;28;20166;-60
2022/06/26 11:18:43;;;;;;;0.63;0.63;;;20.80;99.90;;;;;;5056881;28;20217;-60
2022/06/26 11:21:09;;;;;;;0.68;0.50;;;20.90;99.90;;;;;;5074273;28;20198;-60
2022/06/26 11:23:38;;;;;;;0.68;0.60;;;21.20;99.90;;;;;;5075195;28;20572;-60
2022/06/26 11:26:09;;;;;;;0.88;0.75;;;21.40;99.90;;;;;;5057210;28;20706;-60
2022/06/26 11:28:42;;;;;;;0.40;0.40;;;21.60;99.90;;;;;;5075081;28;20254;-60
2022/06/26 11:31:11;;;;;;;0.50;0.50;;;22.00;99.90;;;;;;5075296;28;20190;-60
2022/06/26 11:33:40;;;;;;;0.63;0.60;;;22.20;99.90;;;;;;5074944;28;20217;-60
2022/06/26 11:36:08;;;;;;;0.50;0.50;;;22.20;99.90;;;;;;5074937;28;20171;-60
2022/06/26 11:38:35;;;;;;;2.30;0.60;;;22.50;99.90;;;;;;5074862;28;20250;-60
2022/06/26 11:41:06;;;;;;;0.50;0.43;;;22.20;99.90;;;;;;5074910;28;20515;-60
2022/06/26 11:43:33;;;;;;;0.25;0.25;;;21.70;99.90;;;;;;5073606;28;20183;-59
2022/06/26 11:46:02;;;;;;;0.52;0.40;;;21.60;99.90;;;;;;5056485;28;20202;-60
2022/06/26 11:48:29;;;;;;;1.20;0.60;;;21.90;99.90;;;;;;5074644;28;20178;-60
2022/06/26 11:50:56;;;;;;;0.40;0.40;;;21.90;99.90;;;;;;5074668;28;20175;-59
2022/06/26 11:53:25;;;;;;;1.52;0.60;;;21.90;99.90;;;;;;5056151;28;20202;-60
2022/06/26 11:56:02;;;;;;;0.45;0.38;;;21.70;99.90;;;;;;5074512;28;20449;-61
2022/06/26 11:58:31;;;;;;;0.40;0.40;;;21.90;99.90;;;;;;5074486;28;20201;-61
2022/06/26 12:01:07;;;;;;;0.50;0.50;;;21.90;99.90;;;;;;5074120;28;20170;-60
2022/06/26 12:03:49;;;;;;;0.80;0.50;;;22.00;99.90;;;;;;5074450;28;20178;-60
2022/06/26 12:06:28;;;;;;;1.17;0.63;;;21.90;99.90;;;;;;5074328;28;20166;-60
2022/06/26 12:08:55;;;;;;;0.68;0.65;;;21.50;99.90;;;;;;5074121;28;20167;-61
2022/06/26 12:11:21;;;;;;;1.23;0.82;;;21.40;99.90;;;;;;5074151;28;20635;-61
2022/06/26 12:13:46;;;;;;;0.88;0.55;;;21.20;99.90;;;;;;5074154;28;20209;-60
2022/06/26 12:16:12;;;;;;;0.82;0.70;;;21.30;99.90;;;;;;5074027;28;20181;-60
2022/06/26 12:18:39;;;;;;;2.13;0.90;;;21.90;99.90;;;;;;5073973;28;20179;-60
2022/06/26 12:21:17;;;;;;;1.13;0.73;;;22.00;99.90;;;;;;5073956;28;20189;-60
2022/06/26 12:23:44;;;;;;;2.40;0.80;;;22.10;99.90;;;;;;5074023;28;20563;-60
2022/06/26 12:26:12;;;;;;;0.70;0.70;;;22.30;99.90;;;;;;5074028;28;20205;-60
2022/06/26 12:28:43;;;;;;;0.88;0.43;;;22.30;99.90;;;;;;5055870;28;20174;-60
2022/06/26 12:31:10;;;;;;;1.25;0.75;;;22.50;99.90;;;;;;5073782;28;20193;-60
2022/06/26 12:33:36;;;;;;;0.90;0.60;;;22.50;99.90;;;;;;5055638;28;20540;-60
2022/06/26 12:36:01;;;;;;;1.20;0.45;;;22.30;99.90;;;;;;5073923;28;20178;-61
2022/06/26 12:38:27;;;;;;;1.33;0.75;;;22.10;99.90;;;;;;5073812;28;20631;-61
2022/06/26 12:40:55;;;;;;;1.35;0.50;;;22.00;99.90;;;;;;5073682;28;20186;-61
2022/06/26 12:43:21;;;;;;;0.98;0.65;;;21.80;99.90;;;;;;5055786;28;20193;-60
2022/06/26 12:45:47;;;;;;;0.60;0.60;;;21.60;99.90;;;;;;5073684;28;20171;-61
2022/06/26 12:48:12;;;;;;;1.38;0.82;;;21.80;99.90;;;;;;5073338;28;20182;-60
2022/06/26 12:50:39;;;;;;;1.65;0.90;;;21.90;99.90;;;;;;5073329;28;20401;-60
2022/06/26 12:53:05;;;;;;;0.85;0.60;;;21.90;99.90;;;;;;5073408;28;20206;-60
2022/06/26 12:55:30;;;;;;;1.63;0.98;;;21.80;99.90;;;;;;5073233;28;20181;-60
2022/06/26 12:57:56;;;;;;;1.67;0.75;;;22.00;99.90;;;;;;5038880;28;20273;-60
2022/06/26 13:00:22;;;;;;;1.85;0.98;;;22.30;99.90;;;;;;5055337;28;20658;-60
2022/06/26 13:02:47;;;;;;;0.60;0.60;;;22.50;99.90;;;;;;5073128;28;20558;-60
2022/06/26 13:05:13;;;;;;;3.83;0.90;;;22.60;99.90;;;;;;5054413;28;20599;-60